Time;durP1;ratioP1;P1;durP2;ratioP2;P2;SDS_P1;SDS_P2;PMS_P1;PMS_P2;Temp;Humidity;BMP_temperature;BMP_pressure;BME280_temperature;BME280_humidity;BME280_pressure;Samples;Min_cycle;Max_cycle;Signal;HPM_P1;HPM_P2
2021/10/17 00:00:30;;;;;;;9.63;6.43;;;;;;;7.39;100.00;93350.03;5028866;28;20494;-89
2021/10/17 00:02:58;;;;;;;7.78;6.38;;;;;;;7.31;100.00;93360.41;5030086;28;20076;-89
2021/10/17 00:05:28;;;;;;;8.73;6.38;;;;;;;7.18;100.00;93359.31;5011245;28;20049;-89
2021/10/17 00:07:55;;;;;;;9.73;6.75;;;;;;;6.46;100.00;93256.38;5032550;28;20132;-89
2021/10/17 00:10:25;;;;;;;11.65;7.43;;;;;;;6.68;100.00;93309.00;5032897;28;20072;-89
2021/10/17 00:12:53;;;;;;;11.77;8.35;;;;;;;7.09;100.00;93355.31;5032886;28;20096;-89
2021/10/17 00:15:22;;;;;;;11.00;8.10;;;;;;;7.02;100.00;93347.59;5032703;28;20050;-89
2021/10/17 00:17:50;;;;;;;9.68;7.43;;;;;;;7.12;100.00;93360.03;5032571;28;20072;-88
2021/10/17 00:20:21;;;;;;;11.43;7.95;;;;;;;7.14;100.00;93360.66;5032816;28;20041;-88
2021/10/17 00:22:48;;;;;;;11.38;8.07;;;;;;;7.22;100.00;93355.41;5032346;28;20053;-89
2021/10/17 00:25:16;;;;;;;10.68;8.18;;;;;;;7.33;100.00;93361.78;5032641;28;20053;-89
2021/10/17 00:27:44;;;;;;;10.50;8.13;;;;;;;7.41;100.00;93363.41;5032537;28;20536;-89
2021/10/17 00:30:12;;;;;;;11.88;7.78;;;;;;;7.45;100.00;93362.06;5032180;28;20053;-89
2021/10/17 00:32:39;;;;;;;8.93;6.68;;;;;;;7.07;100.00;93303.59;5032771;28;20053;-89
2021/10/17 00:35:08;;;;;;;9.45;7.60;;;;;;;6.96;100.00;93304.91;5032663;28;20056;-89
2021/10/17 00:37:37;;;;;;;10.65;8.27;;;;;;;7.34;100.00;93349.78;5032398;28;20072;-90
2021/10/17 00:40:08;;;;;;;11.20;8.07;;;;;;;7.34;100.00;93335.25;5032059;28;20049;-90
2021/10/17 00:42:36;;;;;;;11.98;7.45;;;;;;;7.37;100.00;93335.84;5032307;28;20489;-90
2021/10/17 00:45:06;;;;;;;11.55;8.38;;;;;;;7.70;100.00;93356.53;5031874;28;20133;-90
2021/10/17 00:47:33;;;;;;;13.32;7.88;;;;;;;7.69;100.00;93354.94;5031697;28;20045;-90
2021/10/17 00:50:00;;;;;;;11.15;7.80;;;;;;;7.77;100.00;93359.09;5032179;28;20455;-90
2021/10/17 00:52:27;;;;;;;9.98;7.72;;;;;;;7.77;100.00;93355.78;5032691;28;20053;-89
2021/10/17 00:54:55;;;;;;;13.65;9.00;;;;;;;7.72;100.00;93340.97;5032233;28;20065;-89
2021/10/17 00:57:22;;;;;;;10.77;7.80;;;;;;;7.50;100.00;93307.81;5031642;28;20045;-90
2021/10/17 00:59:50;;;;;;;10.73;7.78;;;;;;;7.51;100.00;93308.63;5031786;28;20390;-89
2021/10/17 01:02:17;;;;;;;10.40;7.35;;;;;;;7.53;100.00;93334.75;5031921;28;20041;-89
2021/10/17 01:04:44;;;;;;;9.35;7.07;;;;;;;7.17;100.00;93291.31;5031840;28;20053;-89
2021/10/17 01:07:11;;;;;;;9.88;7.07;;;;;;;7.51;100.00;93360.53;5032021;28;20555;-88
2021/10/17 01:09:39;;;;;;;9.88;7.68;;;;;;;7.20;100.00;93308.03;5032457;28;20481;-89
2021/10/17 01:12:09;;;;;;;11.65;8.60;;;;;;;7.41;100.00;93342.19;5031729;28;20052;-88
2021/10/17 01:14:36;;;;;;;12.00;7.85;;;;;;;7.54;100.00;93357.59;5031124;28;20049;-88
2021/10/17 01:17:03;;;;;;;11.85;8.40;;;;;;;7.51;100.00;93360.53;5031686;28;20056;-88
2021/10/17 01:19:30;;;;;;;13.45;8.57;;;;;;;7.40;100.00;93348.28;5031447;28;20420;-89
2021/10/17 01:21:59;;;;;;;16.95;10.23;;;;;;;7.40;100.00;93338.06;5031283;28;20100;-89
2021/10/17 01:24:26;;;;;;;17.02;11.18;;;;;;;7.47;100.00;93344.00;5031475;28;20053;-89
2021/10/17 01:26:53;;;;;;;13.95;8.63;;;;;;;7.52;100.00;93357.00;5031735;28;20135;-89
2021/10/17 01:29:19;;;;;;;13.10;8.20;;;;;;;7.39;100.00;93344.91;5031524;28;20064;-89
2021/10/17 01:31:52;;;;;;;9.98;7.38;;;;;;;6.97;100.00;93277.59;5031399;28;20041;-89
2021/10/17 01:34:20;;;;;;;12.05;8.05;;;;;;;7.53;100.00;93357.78;5030983;28;20139;-89
2021/10/17 01:36:47;;;;;;;9.05;6.80;;;;;;;7.09;100.00;93327.22;5030872;28;20053;-89
2021/10/17 01:39:18;;;;;;;9.88;7.45;;;;;;;7.30;100.00;93358.78;5031651;28;20485;-89
2021/10/17 01:41:44;;;;;;;10.88;7.97;;;;;;;7.16;100.00;93358.72;5031849;28;20057;-88
2021/10/17 01:44:24;;;;;;;10.93;8.50;;;;;;;7.04;100.00;93360.19;5030633;28;20512;-89
2021/10/17 01:46:51;;;;;;;12.45;9.95;;;;;;;6.01;100.00;93209.66;5030461;28;20095;-88
2021/10/17 01:49:18;;;;;;;15.57;9.07;;;;;;;6.89;100.00;93332.94;5031187;28;20052;-89
2021/10/17 01:51:44;;;;;;;10.63;8.35;;;;;;;7.01;100.00;93329.91;5030640;28;20061;-89
2021/10/17 01:54:11;;;;;;;12.95;9.73;;;;;;;7.15;100.00;93357.13;5030411;28;20497;-90
2021/10/17 01:56:40;;;;;;;13.15;9.93;;;;;;;6.46;100.00;93257.19;5030483;28;20422;-89
2021/10/17 01:59:08;;;;;;;11.93;9.70;;;;;;;6.47;100.00;93256.19;5030501;28;20064;-90
2021/10/17 02:01:35;;;;;;;12.70;9.50;;;;;;;6.63;100.00;93270.47;5030415;28;20057;-90
2021/10/17 02:04:03;;;;;;;12.93;10.45;;;;;;;6.34;100.00;93223.69;5030688;28;20056;-91
2021/10/17 02:06:30;;;;;;;12.85;10.18;;;;;;;6.49;100.00;93235.59;5030197;28;20487;-91
2021/10/17 02:08:57;;;;;;;16.25;10.63;;;;;;;7.27;100.00;93331.84;5030364;28;20060;-90
2021/10/17 02:11:24;;;;;;;17.23;11.35;;;;;;;6.82;100.00;93255.50;5031114;28;20602;-91
2021/10/17 02:13:52;;;;;;;16.20;11.23;;;;;;;7.51;100.00;93345.19;5031179;28;20059;-90
2021/10/17 02:16:20;;;;;;;13.70;10.82;;;;;;;6.86;100.00;93249.06;5030439;28;20144;-91
2021/10/17 02:18:47;;;;;;;14.48;11.18;;;;;;;7.46;100.00;93327.84;5030872;28;20144;-90
2021/10/17 02:21:14;;;;;;;14.27;10.68;;;;;;;7.32;100.00;93303.97;5030726;28;20045;-88
2021/10/17 02:23:41;;;;;;;16.88;11.65;;;;;;;7.75;100.00;93356.75;5030791;28;20046;-87
2021/10/17 02:26:08;;;;;;;14.35;10.73;;;;;;;7.75;100.00;93351.66;5030322;28;20064;-88
2021/10/17 02:28:35;;;;;;;14.65;10.88;;;;;;;7.34;100.00;93298.69;5031262;28;20111;-87
2021/10/17 02:31:03;;;;;;;13.05;10.10;;;;;;;7.06;100.00;93238.97;5030518;28;20099;-88
2021/10/17 02:33:31;;;;;;;14.82;10.57;;;;;;;7.80;100.00;93368.97;5029802;28;20104;-89
2021/10/17 02:35:57;;;;;;;17.88;11.55;;;;;;;7.81;100.00;93362.88;5029781;28;20527;-90
2021/10/17 02:38:24;;;;;;;19.27;12.38;;;;;;;7.84;100.00;93367.63;5030138;28;20042;-89
2021/10/17 02:40:51;;;;;;;21.52;13.10;;;;;;;7.41;100.00;93308.97;5029999;28;20076;-88
2021/10/17 02:43:18;;;;;;;23.25;12.60;;;;;;;7.29;100.00;93298.47;5029779;28;20041;-89
2021/10/17 02:45:45;;;;;;;20.25;12.20;;;;;;;7.60;100.00;93367.06;5030069;28;20057;-89
2021/10/17 02:48:13;;;;;;;14.07;10.30;;;;;;;7.08;100.00;93308.53;5029601;28;20046;-89
2021/10/17 02:50:40;;;;;;;13.80;10.32;;;;;;;7.26;100.00;93340.50;5029778;28;20920;-89
2021/10/17 02:53:07;;;;;;;14.20;11.02;;;;;;;7.39;100.00;93364.56;5029878;28;20497;-89
2021/10/17 02:55:34;;;;;;;16.85;11.82;;;;;;;7.20;100.00;93339.50;5029707;28;20057;-90
2021/10/17 02:58:01;;;;;;;19.80;11.15;;;;;;;7.45;100.00;93367.16;5029524;28;20136;-89
2021/10/17 03:00:28;;;;;;;14.05;10.82;;;;;;;6.77;100.00;93294.34;5029480;28;20063;-90
2021/10/17 03:02:54;;;;;;;14.77;10.90;;;;;;;7.25;100.00;93371.34;5029541;28;20057;-90
2021/10/17 03:05:23;;;;;;;16.40;11.93;;;;;;;7.21;100.00;93381.94;5029700;28;20042;-89
2021/10/17 03:07:50;;;;;;;15.95;11.32;;;;;;;6.78;100.00;93302.81;5029562;28;20409;-90
2021/10/17 03:10:17;;;;;;;14.98;11.20;;;;;;;7.27;100.00;93359.97;5029606;28;20072;-91
2021/10/17 03:12:44;;;;;;;14.30;11.02;;;;;;;6.96;100.00;93310.03;5029312;28;20050;-90
2021/10/17 03:15:11;;;;;;;15.65;11.80;;;;;;;7.32;100.00;93365.31;5029116;28;20054;-87
2021/10/17 03:17:38;;;;;;;17.08;11.93;;;;;;;7.38;100.00;93368.91;5029262;28;20057;-88
2021/10/17 03:20:06;;;;;;;16.23;11.93;;;;;;;7.30;100.00;93351.13;5029664;28;20045;-85
2021/10/17 03:22:34;;;;;;;17.20;12.90;;;;;;;7.18;100.00;93322.75;5029456;28;20049;-84
2021/10/17 03:25:01;;;;;;;17.23;12.23;;;;;;;7.55;100.00;93373.72;5029202;28;20056;-85
2021/10/17 03:27:28;;;;;;;16.48;12.55;;;;;;;7.60;100.00;93372.19;5029542;28;20127;-85
2021/10/17 03:29:54;;;;;;;16.33;11.48;;;;;;;7.65;100.00;93370.84;5029090;28;20049;-85
2021/10/17 03:32:21;;;;;;;16.20;11.82;;;;;;;6.89;100.00;93264.00;5029067;28;20081;-86
2021/10/17 03:34:48;;;;;;;16.08;11.45;;;;;;;7.79;100.00;93384.50;5028978;28;20054;-87
2021/10/17 03:37:15;;;;;;;15.80;12.50;;;;;;;7.81;100.00;93385.09;5031794;28;20052;-87
2021/10/17 03:39:43;;;;;;;16.25;12.20;;;;;;;7.50;100.00;93328.25;5035917;28;20049;-87
2021/10/17 03:42:10;;;;;;;16.52;12.40;;;;;;;7.53;100.00;93315.13;5035678;28;20052;-87
2021/10/17 03:44:37;;;;;;;16.13;11.88;;;;;;;7.58;100.00;93320.47;5036214;28;20409;-85
2021/10/17 03:47:04;;;;;;;15.55;11.43;;;;;;;7.77;100.00;93340.44;5036138;28;20049;-86
2021/10/17 03:49:31;;;;;;;16.40;11.43;;;;;;;7.60;100.00;93318.50;5035643;28;20045;-85
2021/10/17 03:51:59;;;;;;;16.42;12.30;;;;;;;7.22;100.00;93257.53;5035775;28;20414;-86
2021/10/17 03:54:29;;;;;;;16.52;13.07;;;;;;;8.02;100.00;93372.22;5036792;28;20407;-86
2021/10/17 03:57:00;;;;;;;17.60;12.48;;;;;;;7.58;100.00;93304.31;5036032;28;20049;-84
2021/10/17 03:59:27;;;;;;;19.08;13.15;;;;;;;8.06;100.00;93382.09;5042882;28;20493;-87
2021/10/17 04:01:53;;;;;;;15.65;11.45;;;;;;;8.09;100.00;93381.69;5045302;28;20415;-86
2021/10/17 04:04:20;;;;;;;16.02;11.80;;;;;;;7.34;100.00;93271.38;5046323;28;20045;-86
2021/10/17 04:06:47;;;;;;;16.45;12.27;;;;;;;8.08;100.00;93386.03;5044562;28;20518;-87
2021/10/17 04:09:14;;;;;;;18.48;13.88;;;;;;;8.08;100.00;93380.91;5044547;28;20051;-87
2021/10/17 04:11:40;;;;;;;19.25;14.98;;;;;;;7.40;100.00;93282.59;5046263;28;20048;-86
2021/10/17 04:14:09;;;;;;;20.58;14.38;;;;;;;8.01;100.00;93377.53;5044796;28;20071;-86
2021/10/17 04:16:35;;;;;;;16.10;12.50;;;;;;;8.00;100.00;93381.06;5045916;28;20051;-87
2021/10/17 04:19:03;;;;;;;16.05;12.02;;;;;;;7.40;100.00;93286.94;5044507;28;20048;-87
2021/10/17 04:21:32;;;;;;;19.67;12.98;;;;;;;8.01;100.00;93383.44;5044422;28;20049;-87
2021/10/17 04:24:08;;;;;;;16.75;12.27;;;;;;;7.27;100.00;93262.88;5039953;28;20128;-89
2021/10/17 04:26:36;;;;;;;;;;;;;;;8.07;100.00;93384.47;5038727;28;20050;-89
2021/10/17 04:29:03;;;;;;;17.63;12.85;;;;;;;7.56;100.00;93317.31;5033443;28;19932;-87
2021/10/17 04:31:31;;;;;;;15.38;12.00;;;;;;;7.75;100.00;93343.97;5035480;28;20071;-89
2021/10/17 04:33:58;;;;;;;15.18;13.10;;;;;;;8.05;100.00;93386.41;5034950;28;20045;-88
2021/10/17 04:36:25;;;;;;;20.50;14.20;;;;;;;8.05;100.00;93383.84;5034978;28;20124;-88
2021/10/17 04:38:53;;;;;;;18.58;14.32;;;;;;;7.38;100.00;93293.97;5035283;28;20050;-86
2021/10/17 04:41:20;;;;;;;19.15;15.35;;;;;;;7.95;100.00;93370.59;5035353;28;20046;-84
2021/10/17 04:43:47;;;;;;;19.20;14.02;;;;;;;8.05;100.00;93386.41;5035552;28;20488;-84
2021/10/17 04:46:14;;;;;;;17.85;13.40;;;;;;;7.52;100.00;93315.31;5035177;28;20056;-85
2021/10/17 04:48:42;;;;;;;17.52;13.18;;;;;;;7.76;100.00;93354.97;5033223;28;20041;-87
2021/10/17 04:51:10;;;;;;;19.05;13.90;;;;;;;7.69;100.00;93356.72;5032065;28;20053;-87
2021/10/17 04:53:36;;;;;;;18.27;14.10;;;;;;;8.07;100.00;93393.91;5032547;28;20063;-87
2021/10/17 04:56:04;;;;;;;19.08;14.20;;;;;;;8.04;100.00;93405.28;5032656;28;20049;-88
2021/10/17 04:58:31;;;;;;;17.67;13.43;;;;;;;8.04;100.00;93405.28;5031785;28;20464;-87
2021/10/17 05:00:58;;;;;;;17.67;13.20;;;;;;;7.81;100.00;93379.97;5032704;28;20758;-89
2021/10/17 05:03:24;;;;;;;17.88;13.02;;;;;;;7.38;100.00;93310.13;5032330;28;20042;-87
2021/10/17 05:05:53;;;;;;;19.38;14.38;;;;;;;7.47;100.00;93341.44;5032724;28;20053;-86
2021/10/17 05:08:20;;;;;;;20.85;14.88;;;;;;;7.94;100.00;93405.63;5018452;28;36782;-88
2021/10/17 05:10:46;;;;;;;21.45;14.55;;;;;;;7.88;100.00;93407.16;5031634;28;20049;-88
2021/10/17 05:13:13;;;;;;;21.75;15.40;;;;;;;7.34;100.00;93329.34;5031847;28;20386;-86
2021/10/17 05:15:40;;;;;;;19.67;13.95;;;;;;;8.01;100.00;93409.00;5031665;28;20046;-85
2021/10/17 05:18:07;;;;;;;24.58;15.40;;;;;;;8.04;100.00;93409.63;5031414;28;20046;-86
2021/10/17 05:20:34;;;;;;;22.70;13.82;;;;;;;7.27;100.00;93292.75;5031612;28;20046;-86
2021/10/17 05:23:02;;;;;;;21.95;13.63;;;;;;;7.96;100.00;93393.44;5031302;28;20045;-86
2021/10/17 05:25:29;;;;;;;20.02;14.43;;;;;;;8.18;100.00;93416.38;5031440;28;20061;-86
2021/10/17 05:27:56;;;;;;;19.83;14.02;;;;;;;7.77;100.00;93354.00;5031260;28;20493;-86
2021/10/17 05:30:23;;;;;;;29.85;17.20;;;;;;;8.28;100.00;93416.81;5031415;28;20152;-87
2021/10/17 05:32:50;;;;;;;30.30;17.13;;;;;;;8.34;100.00;93428.06;5031247;28;20057;-89
2021/10/17 05:35:17;;;;;;;37.05;23.63;;;;;;;7.84;100.00;93354.03;5031372;28;20049;-88
2021/10/17 05:37:44;;;;;;;49.05;33.05;;;;;;;8.45;100.00;93431.88;5030849;28;20041;-89
2021/10/17 05:40:12;;;;;;;39.20;25.08;;;;;;;8.00;100.00;93366.50;5033309;28;20535;-90
2021/10/17 05:42:39;;;;;;;30.27;20.95;;;;;;;8.37;100.00;93414.09;5031172;28;20064;-90
2021/10/17 05:45:06;;;;;;;113.60;45.88;;;;;;;7.86;100.00;93365.66;5031012;28;20501;-88
2021/10/17 05:47:33;;;;;;;21.25;13.10;;;;;;;8.27;100.00;93442.59;5031464;28;20056;-88
2021/10/17 05:50:00;;;;;;;55.88;29.75;;;;;;;8.05;100.00;93441.91;5031425;28;20580;-87
2021/10/17 05:52:27;;;;;;;39.28;24.15;;;;;;;7.55;100.00;93447.88;5029762;28;20493;-88
2021/10/17 05:54:54;;;;;;;23.88;16.50;;;;;;;6.51;100.00;93297.44;5027908;28;20045;-88
2021/10/17 05:57:22;;;;;;;25.67;17.48;;;;;;;7.62;100.00;93441.03;5029382;28;20053;-89
2021/10/17 05:59:49;;;;;;;25.23;16.38;;;;;;;7.42;100.00;93416.13;5030339;28;20132;-89
2021/10/17 06:02:18;;;;;;;25.60;16.52;;;;;;;7.59;100.00;93446.53;5029788;28;20087;-88
2021/10/17 06:04:45;;;;;;;22.30;15.32;;;;;;;7.26;100.00;93366.03;5030389;28;20054;-88
2021/10/17 06:07:12;;;;;;;24.17;14.77;;;;;;;7.92;100.00;93452.84;5030324;28;20049;-89
2021/10/17 06:09:40;;;;;;;27.45;15.68;;;;;;;7.25;100.00;93343.22;5030294;28;20057;-89
2021/10/17 06:12:08;;;;;;;25.80;15.82;;;;;;;7.38;100.00;93355.31;5030444;28;20514;-88
2021/10/17 06:14:37;;;;;;;26.02;16.25;;;;;;;8.14;100.00;93440.75;5030384;28;20068;-86
2021/10/17 06:17:04;;;;;;;20.20;14.45;;;;;;;8.43;100.00;93470.44;5030120;28;20057;-88
2021/10/17 06:19:31;;;;;;;24.67;14.35;;;;;;;8.05;100.00;93408.66;5029439;28;20448;-88
2021/10/17 06:22:05;;;;;;;20.63;13.60;;;;;;;8.21;100.00;93413.47;5029768;28;20049;-89
2021/10/17 06:24:33;;;;;;;22.45;13.18;;;;;;;8.02;100.00;93377.34;5030153;28;20058;-88
2021/10/17 06:27:00;;;;;;;22.83;14.00;;;;;;;7.94;100.00;93343.44;5030299;28;20056;-89
2021/10/17 06:29:27;;;;;;;18.67;12.32;;;;;;;8.40;100.00;93429.09;5029544;28;20050;-89
2021/10/17 06:31:55;;;;;;;18.02;12.57;;;;;;;8.21;100.00;93410.91;5029784;28;20057;-87
2021/10/17 06:34:22;;;;;;;18.10;13.15;;;;;;;8.01;100.00;93370.63;5030185;28;20085;-87
2021/10/17 06:36:49;;;;;;;19.10;13.18;;;;;;;7.59;100.00;93337.38;5029854;28;20063;-88
2021/10/17 06:39:16;;;;;;;17.80;12.80;;;;;;;7.72;100.00;93362.22;5029854;28;20053;-87
2021/10/17 06:41:43;;;;;;;31.13;15.60;;;;;;;8.41;100.00;93451.13;5029545;28;20053;-90
2021/10/17 06:44:09;;;;;;;25.20;16.20;;;;;;;8.51;100.00;93481.50;5029692;28;20416;-87
2021/10/17 06:46:36;;;;;;;21.48;14.95;;;;;;;8.52;100.00;93478.03;5029827;28;20054;-87
2021/10/17 06:49:05;;;;;;;22.60;14.75;;;;;;;8.47;100.00;93483.66;5029457;28;20071;-87
2021/10/17 06:51:31;;;;;;;32.72;19.60;;;;;;;8.35;100.00;93490.28;5029406;28;20060;-87
2021/10/17 06:53:58;;;;;;;26.88;17.00;;;;;;;7.44;100.00;93359.69;5028995;28;20045;-91
2021/10/17 06:56:28;;;;;;;30.75;19.65;;;;;;;7.87;100.00;93463.66;5030238;28;20041;-91
2021/10/17 07:01:38;;;;;;;32.67;19.63;;;;;;;8.04;100.00;93489.72;5028286;28;20509;-89
2021/10/17 07:04:07;;;;;;;29.15;19.08;;;;;;;7.71;100.00;93436.56;5029945;28;20136;-91
2021/10/17 07:06:34;;;;;;;34.63;20.55;;;;;;;8.14;100.00;93497.06;5030265;28;20051;-88
2021/10/17 07:09:01;;;;;;;31.92;18.50;;;;;;;7.64;100.00;93439.06;5029039;28;20051;-89
2021/10/17 07:11:27;;;;;;;35.20;20.15;;;;;;;7.89;100.00;93497.50;5029815;28;20866;-88
2021/10/17 07:13:54;;;;;;;29.80;19.02;;;;;;;7.27;100.00;93369.41;5029859;28;20051;-90
2021/10/17 07:16:21;;;;;;;30.52;19.40;;;;;;;8.09;100.00;93495.06;5029201;28;20045;-89
2021/10/17 07:18:48;;;;;;;26.17;17.40;;;;;;;7.48;100.00;93422.25;5029111;28;20587;-89
2021/10/17 07:21:17;;;;;;;29.65;18.42;;;;;;;7.34;100.00;93411.13;5029294;28;20058;-89
2021/10/17 07:24:03;;;;;;;32.25;19.88;;;;;;;7.86;100.00;93503.75;5030609;28;20409;-89
2021/10/17 07:26:30;;;;;;;;;;;;;;;7.86;100.00;93503.75;5048277;28;20069;-89
2021/10/17 07:29:00;;;;;;;30.33;18.85;;;;;;;7.95;100.00;93496.75;5049469;28;19928;-83
2021/10/17 07:31:26;;;;;;;29.63;18.30;;;;;;;8.04;100.00;93499.94;5049684;28;20076;-90
2021/10/17 07:33:53;;;;;;;22.45;14.07;;;;;;;8.09;100.00;93507.06;5049429;28;20064;-88
2021/10/17 07:36:22;;;;;;;31.70;17.77;;;;;;;7.14;100.00;93378.56;5048627;28;20045;-89
2021/10/17 07:38:49;;;;;;;24.70;15.05;;;;;;;8.23;100.00;93510.50;5035083;28;20049;-90
2021/10/17 07:41:16;;;;;;;28.70;17.70;;;;;;;7.31;100.00;93350.19;5029137;28;20100;-90
2021/10/17 07:43:44;;;;;;;25.48;16.27;;;;;;;7.93;100.00;93414.28;5029093;28;20123;-90
2021/10/17 07:46:11;;;;;;;29.60;19.17;;;;;;;8.46;100.00;93481.31;5028331;28;20465;-88
2021/10/17 07:48:41;;;;;;;25.00;16.80;;;;;;;7.96;100.00;93413.13;5028932;28;20057;-89
2021/10/17 07:51:08;;;;;;;21.88;14.77;;;;;;;8.18;100.00;93446.31;5029028;28;20451;-89
2021/10/17 07:53:39;;;;;;;23.52;15.48;;;;;;;8.06;100.00;93397.44;5029112;28;20388;-89
2021/10/17 07:56:06;;;;;;;18.10;12.85;;;;;;;8.39;100.00;93438.53;5029584;28;20049;-89
2021/10/17 07:58:33;;;;;;;25.52;15.80;;;;;;;9.18;100.00;93514.31;5029408;28;20420;-90
2021/10/17 08:01:00;;;;;;;36.38;20.33;;;;;;;8.78;100.00;93449.16;5029117;28;20083;-89
2021/10/17 08:03:27;;;;;;;26.13;16.60;;;;;;;8.61;100.00;93423.09;5028831;28;20527;-89
2021/10/17 08:05:54;;;;;;;27.00;16.52;;;;;;;8.93;100.00;93431.06;5028987;28;20140;-87
2021/10/17 08:08:21;;;;;;;25.23;15.88;;;;;;;9.54;100.00;93502.94;5028941;28;20411;-90
2021/10/17 08:10:49;;;;;;;22.60;15.05;;;;;;;9.58;100.00;93500.78;5029193;28;20056;-89
2021/10/17 08:13:16;;;;;;;19.90;12.90;;;;;;;9.12;100.00;93435.63;5029142;28;20517;-90
2021/10/17 08:15:56;;;;;;;25.17;16.70;;;;;;;9.26;100.00;93432.09;5029543;28;20136;-92
2021/10/17 08:18:26;;;;;;;21.33;13.88;;;;;;;9.14;100.00;93403.72;5029895;28;20045;-90
2021/10/17 08:20:55;;;;;;;26.90;15.07;;;;;;;8.97;100.00;93369.19;5029554;28;20053;-89
2021/10/17 08:23:23;;;;;;;24.10;15.43;;;;;;;9.32;100.00;93410.84;5029779;28;20061;-92
2021/10/17 08:25:52;;;;;;;24.75;13.60;;;;;;;9.59;100.00;93453.63;5032562;28;20055;-91
2021/10/17 08:28:19;;;;;;;24.30;16.05;;;;;;;9.93;100.00;93451.84;5033242;28;20053;-90
2021/10/17 08:30:50;;;;;;;26.38;16.55;;;;;;;10.32;100.00;93487.91;5032678;28;20454;-91
2021/10/17 08:33:18;;;;;;;25.63;17.20;;;;;;;9.85;100.00;93409.22;5032525;28;20402;-91
2021/10/17 08:35:49;;;;;;;23.90;14.98;;;;;;;10.19;100.00;93434.81;5031903;28;20056;-92
2021/10/17 08:38:15;;;;;;;18.23;12.88;;;;;;;10.11;100.00;93388.81;5032903;28;20053;-91
2021/10/17 08:40:53;;;;;;;18.58;12.45;;;;;;;10.70;100.00;93465.91;5031874;28;20049;-91
2021/10/17 08:43:21;;;;;;;22.85;12.75;;;;;;;11.01;100.00;93492.66;5032623;28;20045;-91
2021/10/17 08:45:48;;;;;;;21.30;15.07;;;;;;;10.92;100.00;93520.38;5032772;28;20057;-88
2021/10/17 08:48:27;;;;;;;22.58;14.80;;;;;;;10.10;100.00;93369.28;5032431;28;20063;-91
2021/10/17 08:51:04;;;;;;;19.85;13.65;;;;;;;10.78;100.00;93500.88;5032576;28;20103;-91
2021/10/17 08:53:31;;;;;;;19.15;12.75;;;;;;;10.53;100.00;93429.59;5032648;28;20049;-89
2021/10/17 08:56:01;;;;;;;19.27;12.18;;;;;;;9.73;100.00;93392.84;5032347;28;20132;-90
2021/10/17 08:58:29;;;;;;;21.60;13.70;;;;;;;10.60;100.00;93502.28;5032144;28;20053;-88
2021/10/17 09:01:10;;;;;;;22.55;15.00;;;;;;;10.06;100.00;93478.47;5032658;28;20053;-90
2021/10/17 09:03:36;;;;;;;26.75;15.98;;;;;;;9.78;100.00;93454.63;5032683;28;20511;-89
2021/10/17 09:06:18;;;;;;;20.30;12.55;;;;;;;10.01;100.00;93473.94;5031596;28;20049;-90
2021/10/17 09:08:46;;;;;;;18.88;11.88;;;;;;;10.00;100.00;93441.56;5031023;28;20447;-90
2021/10/17 09:11:14;;;;;;;17.92;11.48;;;;;;;10.49;100.00;93508.03;5031408;28;20042;-90
2021/10/17 09:14:04;;;;;;;18.50;11.60;;;;;;;10.86;100.00;93521.19;5031450;28;20057;-90
2021/10/17 09:16:36;;;;;;;21.08;12.60;;;;;;;10.11;100.00;93376.00;5032003;28;20136;-90
2021/10/17 09:19:13;;;;;;;19.42;13.25;;;;;;;10.84;100.00;93502.63;5031719;28;20131;-90
2021/10/17 09:22:07;;;;;;;18.48;12.85;;;;;;;11.06;100.00;93477.41;5032452;28;20041;-93
2021/10/17 09:24:36;;;;;;;33.72;23.10;;;;;;;10.76;100.00;93480.50;5032818;28;20053;-86
2021/10/17 09:27:05;;;;;;;18.70;12.80;;;;;;;11.12;100.00;93518.72;5032094;28;20533;-88
2021/10/17 09:29:36;;;;;;;26.75;17.67;;;;;;;10.74;100.00;93474.00;5031163;28;20120;-86
2021/10/17 09:32:11;;;;;;;18.95;13.55;;;;;;;10.67;100.00;93459.41;5031479;28;20042;-87
2021/10/17 09:34:38;;;;;;;17.80;12.65;;;;;;;10.94;100.00;93518.38;5031082;28;20045;-87
2021/10/17 09:37:09;;;;;;;18.08;11.75;;;;;;;9.90;100.00;93416.31;5031397;28;20416;-87
2021/10/17 09:39:38;;;;;;;21.63;12.93;;;;;;;10.67;100.00;93507.41;5027627;28;20046;-86
2021/10/17 09:42:07;;;;;;;16.60;10.35;;;;;;;10.56;100.00;93465.16;5029621;28;20447;-86
2021/10/17 09:44:40;;;;;;;17.35;9.70;;;;;;;10.81;100.00;93510.72;5030620;28;20057;-87
2021/10/17 09:47:07;;;;;;;14.05;9.63;;;;;;;10.56;100.00;93442.81;5030996;28;20115;-85
2021/10/17 09:49:34;;;;;;;18.92;10.60;;;;;;;11.00;100.00;93487.72;5030975;28;20115;-86
2021/10/17 09:52:13;;;;;;;20.45;15.07;;;;;;;10.98;100.00;93513.63;5031093;28;20045;-86
2021/10/17 09:54:40;;;;;;;16.45;10.98;;;;;;;10.66;100.00;93521.25;5030604;28;20081;-89
2021/10/17 09:57:08;;;;;;;16.70;10.95;;;;;;;9.87;100.00;93404.66;5030646;28;20075;-84
2021/10/17 09:59:36;;;;;;;17.33;10.63;;;;;;;10.73;100.00;93480.13;5030850;28;20059;-87
2021/10/17 10:02:09;;;;;;;18.70;11.88;;;;;;;10.61;100.00;93516.72;5030835;28;20084;-87
2021/10/17 10:04:38;;;;;;;15.30;10.30;;;;;;;9.69;100.00;93394.25;5030428;28;20136;-88
2021/10/17 10:07:06;;;;;;;16.10;10.10;;;;;;;10.54;100.00;93497.97;5030786;28;20050;-88
2021/10/17 10:09:33;;;;;;;17.38;10.57;;;;;;;10.80;100.00;93494.50;5030738;28;20053;-87
2021/10/17 10:12:03;;;;;;;16.77;11.32;;;;;;;10.58;100.00;93441.81;5030414;28;20054;-88
2021/10/17 10:14:32;;;;;;;20.00;12.73;;;;;;;10.81;100.00;93459.34;5030135;28;20512;-87
2021/10/17 10:17:02;;;;;;;17.42;11.45;;;;;;;10.39;100.00;93437.34;5030529;28;20504;-87
2021/10/17 10:19:32;;;;;;;19.65;11.98;;;;;;;10.68;100.00;93509.78;5029973;28;20058;-88
2021/10/17 10:21:59;;;;;;;16.90;12.00;;;;;;;10.26;100.00;93445.84;5030479;28;21041;-88
2021/10/17 10:24:27;;;;;;;29.65;17.55;;;;;;;10.51;100.00;93503.50;5029605;28;20188;-87
2021/10/17 10:26:54;;;;;;;15.85;10.55;;;;;;;10.75;100.00;93502.06;5028578;28;20049;-87
2021/10/17 10:29:25;;;;;;;16.60;10.25;;;;;;;10.71;100.00;93495.75;5028833;28;20045;-87
2021/10/17 10:31:54;;;;;;;16.80;11.18;;;;;;;10.16;100.00;93424.94;5030066;28;20051;-87
2021/10/17 10:35:03;;;;;;;15.18;9.75;;;;;;;10.88;100.00;93490.16;5029663;28;20045;-87
2021/10/17 10:37:33;;;;;;;16.92;11.32;;;;;;;10.79;100.00;93477.50;5029792;28;20049;-87
2021/10/17 10:40:19;;;;;;;19.27;10.45;;;;;;;11.09;100.00;93489.06;5030032;28;20045;-88
2021/10/17 10:42:48;;;;;;;14.98;7.82;;;;;;;10.96;100.00;93456.50;5030608;28;20049;-86
2021/10/17 10:45:30;;;;;;;13.75;9.77;;;;;;;10.67;100.00;93413.16;5030673;28;20420;-87
2021/10/17 10:48:20;;;;;;;21.67;13.95;;;;;;;11.01;100.00;93490.06;5029614;28;20053;-87
2021/10/17 10:50:48;;;;;;;18.52;9.88;;;;;;;11.23;100.00;93487.19;5029803;28;20107;-84
2021/10/17 10:53:48;;;;;;;14.10;9.32;;;;;;;10.83;100.00;93411.09;5029475;28;20045;-84
2021/10/17 10:56:41;;;;;;;14.82;9.73;;;;;;;11.35;100.00;93482.97;5029472;28;20524;-85
2021/10/17 10:59:08;;;;;;;15.95;9.50;;;;;;;11.21;100.00;93491.78;5029455;28;20435;-84
2021/10/17 11:02:01;;;;;;;15.23;9.73;;;;;;;11.44;100.00;93465.50;5029302;28;20056;-84
2021/10/17 11:04:59;;;;;;;13.15;8.18;;;;;;;11.52;100.00;93473.97;5011348;28;20472;-84
2021/10/17 11:07:31;;;;;;;11.45;7.30;;;;;;;11.42;100.00;93477.00;5029800;28;20115;-84
2021/10/17 11:10:41;;;;;;;12.55;7.45;;;;;;;11.63;100.00;93481.81;5029583;28;20049;-84
2021/10/17 11:13:10;;;;;;;18.77;9.30;;;;;;;11.53;100.00;93465.25;5029548;28;20151;-85
2021/10/17 11:15:39;;;;;;;12.10;8.52;;;;;;;10.52;100.00;93381.81;5029660;28;20060;-85
2021/10/17 11:18:08;;;;;;;16.00;9.43;;;;;;;11.42;100.00;93492.44;5029040;28;20054;-85
2021/10/17 11:20:38;;;;;;;16.17;10.20;;;;;;;11.27;100.00;93487.56;5029484;28;20049;-85
2021/10/17 11:23:05;;;;;;;11.90;8.32;;;;;;;11.42;100.00;93466.72;5029185;28;20049;-85
2021/10/17 11:25:34;;;;;;;16.63;8.93;;;;;;;11.74;100.00;93485.50;5028924;28;20050;-85
2021/10/17 11:28:02;;;;;;;15.60;9.60;;;;;;;11.31;100.00;93474.13;5029134;28;20103;-84
2021/10/17 11:30:30;;;;;;;12.70;8.13;;;;;;;11.35;100.00;93472.69;5029340;28;20061;-84